Time;durP1;ratioP1;P1;durP2;ratioP2;P2;SDS_P1;SDS_P2;PMS_P1;PMS_P2;Temp;Humidity;BMP_temperature;BMP_pressure;BME280_temperature;BME280_humidity;BME280_pressure;Samples;Min_cycle;Max_cycle;Signal;HPM_P1;HPM_P2
2022/07/24 00:00:41;;;;;;;0.00;0.00;;;;;;;;;;5036758;28;20022;-64
2022/07/24 00:03:07;;;;;;;0.00;0.00;;;;;;;;;;5037105;28;20052;-64
2022/07/24 00:05:32;;;;;;;0.00;0.00;;;;;;;;;;5047723;28;20319;-63
2022/07/24 00:08:00;;;;;;;0.15;0.15;;;;;;;;;;5043464;28;20091;-62
2022/07/24 00:10:26;;;;;;;0.00;0.00;;;;;;;;;;5041332;28;20075;-61
2022/07/24 00:12:51;;;;;;;0.15;0.15;;;;;;;;;;5045236;28;20025;-61
2022/07/24 00:15:16;;;;;;;0.00;0.00;;;;;;;;;;5043897;28;20045;-62
2022/07/24 00:17:42;;;;;;;1.75;1.67;;;;;;;;;;5044450;28;20029;-62
2022/07/24 00:20:07;;;;;;;0.00;0.00;;;;;;;;;;5045095;28;20025;-62
2022/07/24 00:22:33;;;;;;;0.75;0.17;;;;;;;;;;5045191;28;20016;-64
2022/07/24 00:25:01;;;;;;;0.00;0.00;;;;;;;;;;5044361;28;20036;-63
2022/07/24 00:27:26;;;;;;;0.00;0.00;;;;;;;;;;5045081;28;20029;-63
2022/07/24 00:29:54;;;;;;;0.00;0.00;;;;;;;;;;5045088;28;20462;-63
2022/07/24 00:32:22;;;;;;;0.00;0.00;;;;;;;;;;5044777;28;20031;-64
2022/07/24 00:34:47;;;;;;;0.00;0.00;;;;;;;;;;5044917;28;20029;-64
2022/07/24 00:37:13;;;;;;;0.00;0.00;;;;;;;;;;5044677;28;20369;-64
2022/07/24 00:39:45;;;;;;;0.40;0.40;;;;;;;;;;5045534;28;20484;-65
2022/07/24 00:42:12;;;;;;;0.00;0.00;;;;;;;;;;5042776;28;20028;-65
2022/07/24 00:44:38;;;;;;;0.00;0.00;;;;;;;;;;5044205;28;20111;-65
2022/07/24 00:47:03;;;;;;;0.00;0.00;;;;;;;;;;5042784;28;20120;-64
2022/07/24 00:49:31;;;;;;;0.00;0.00;;;;;;;;;;5045687;28;20465;-65
2022/07/24 00:51:56;;;;;;;1.13;1.13;;;;;;;;;;5044743;28;20021;-66
2022/07/24 00:54:25;;;;;;;0.00;0.00;;;;;;;;;;5044217;28;20474;-65
2022/07/24 00:56:51;;;;;;;0.00;0.00;;;;;;;;;;5043926;28;20025;-65
2022/07/24 00:59:18;;;;;;;0.00;0.00;;;;;;;;;;5044258;28;20044;-65
2022/07/24 01:01:44;;;;;;;0.00;0.00;;;;;;;;;;5044458;28;20044;-64
2022/07/24 01:04:10;;;;;;;0.00;0.00;;;;;;;;;;5034450;28;20029;-62
2022/07/24 01:06:44;;;;;;;0.00;0.00;;;;;;;;;;5031899;28;20470;-62
2022/07/24 01:09:13;;;;;;;0.00;0.00;;;;;;;;;;5025064;28;20014;-66
2022/07/24 01:11:47;;;;;;;0.00;0.00;;;;;;;;;;5029403;28;20079;-66
2022/07/24 01:14:13;;;;;;;0.00;0.00;;;;;;;;;;5033749;28;20056;-66
2022/07/24 01:16:38;;;;;;;0.00;0.00;;;;;;;;;;5034479;28;20079;-65
2022/07/24 01:19:04;;;;;;;0.00;0.00;;;;;;;;;;5033887;28;20457;-66
2022/07/24 01:21:31;;;;;;;0.00;0.00;;;;;;;;;;5032951;28;20481;-64
2022/07/24 01:23:57;;;;;;;0.28;0.28;;;;;;;;;;5031088;28;20025;-64
2022/07/24 01:26:25;;;;;;;0.00;0.00;;;;;;;;;;5030633;28;20025;-64
2022/07/24 01:28:53;;;;;;;0.00;0.00;;;;;;;;;;5025481;28;20366;-63
2022/07/24 01:31:18;;;;;;;1.17;0.30;;;;;;;;;;5020381;28;20029;-64
2022/07/24 01:33:44;;;;;;;0.00;0.00;;;;;;;;;;5021766;28;20043;-64
2022/07/24 01:36:18;;;;;;;0.17;0.17;;;;;;;;;;5029389;28;20385;-64
2022/07/24 01:38:46;;;;;;;0.00;0.00;;;;;;;;;;5030312;28;20025;-63
2022/07/24 01:41:17;;;;;;;0.00;0.00;;;;;;;;;;5027037;28;20021;-63
2022/07/24 01:43:42;;;;;;;0.00;0.00;;;;;;;;;;5020400;28;20022;-62
2022/07/24 01:46:11;;;;;;;0.00;0.00;;;;;;;;;;5020313;28;20033;-64
2022/07/24 01:48:40;;;;;;;0.00;0.00;;;;;;;;;;5020800;28;20425;-63
2022/07/24 01:51:05;;;;;;;0.00;0.00;;;;;;;;;;5019526;28;20021;-63
2022/07/24 01:53:30;;;;;;;0.00;0.00;;;;;;;;;;5021700;28;20044;-63
2022/07/24 01:55:56;;;;;;;0.00;0.00;;;;;;;;;;5021034;28;20021;-64
2022/07/24 01:58:21;;;;;;;0.00;0.00;;;;;;;;;;5018970;28;20327;-65
2022/07/24 02:00:49;;;;;;;0.32;0.32;;;;;;;;;;5018812;28;20040;-65
2022/07/24 02:03:14;;;;;;;0.00;0.00;;;;;;;;;;5034380;28;20037;-65
2022/07/24 02:05:40;;;;;;;0.00;0.00;;;;;;;;;;5040243;28;20737;-63
2022/07/24 02:08:13;;;;;;;0.00;0.00;;;;;;;;;;5039435;28;20024;-63
2022/07/24 02:10:44;;;;;;;0.30;0.30;;;;;;;;;;5040429;28;20030;-64
2022/07/24 02:13:18;;;;;;;0.40;0.40;;;;;;;;;;5039751;28;20017;-64
2022/07/24 02:15:46;;;;;;;0.00;0.00;;;;;;;;;;5039661;28;20049;-65
2022/07/24 02:18:11;;;;;;;0.20;0.20;;;;;;;;;;5039487;28;20071;-66
2022/07/24 02:20:36;;;;;;;0.00;0.00;;;;;;;;;;5039843;28;20017;-66
2022/07/24 02:23:02;;;;;;;0.00;0.00;;;;;;;;;;5039536;28;20125;-66
2022/07/24 02:25:30;;;;;;;0.00;0.00;;;;;;;;;;5039087;28;20100;-66
2022/07/24 02:27:55;;;;;;;0.00;0.00;;;;;;;;;;5039501;28;20037;-64
2022/07/24 02:30:22;;;;;;;0.00;0.00;;;;;;;;;;5038117;28;20431;-63
2022/07/24 02:32:47;;;;;;;0.00;0.00;;;;;;;;;;5040789;28;20017;-63
2022/07/24 02:35:12;;;;;;;0.00;0.00;;;;;;;;;;5039129;28;20075;-63
2022/07/24 02:37:38;;;;;;;0.00;0.00;;;;;;;;;;5039234;28;20029;-63
2022/07/24 02:40:08;;;;;;;0.00;0.00;;;;;;;;;;5038969;28;20034;-62
2022/07/24 02:42:36;;;;;;;0.00;0.00;;;;;;;;;;5040272;28;20036;-64
2022/07/24 02:45:05;;;;;;;0.00;0.00;;;;;;;;;;5038923;28;20405;-65
2022/07/24 02:47:33;;;;;;;0.03;0.03;;;;;;;;;;5040086;28;20354;-65
2022/07/24 02:49:59;;;;;;;0.00;0.00;;;;;;;;;;5039112;28;20064;-64
2022/07/24 02:52:26;;;;;;;0.00;0.00;;;;;;;;;;5038824;28;20052;-64
2022/07/24 02:54:54;;;;;;;0.00;0.00;;;;;;;;;;5039174;28;20047;-64
2022/07/24 02:57:22;;;;;;;0.00;0.00;;;;;;;;;;5038394;28;20060;-64
2022/07/24 02:59:51;;;;;;;0.00;0.00;;;;;;;;;;5038218;28;20755;-65
2022/07/24 03:02:17;;;;;;;0.00;0.00;;;;;;;;;;5040339;28;20387;-65
2022/07/24 03:04:42;;;;;;;0.00;0.00;;;;;;;;;;5039038;28;20047;-64
2022/07/24 03:07:08;;;;;;;0.00;0.00;;;;;;;;;;5038695;28;20482;-64
2022/07/24 03:09:34;;;;;;;0.00;0.00;;;;;;;;;;5039411;28;20044;-64
2022/07/24 03:12:05;;;;;;;0.00;0.00;;;;;;;;;;5039476;28;20108;-63
2022/07/24 03:14:30;;;;;;;0.35;0.35;;;;;;;;;;5038974;28;20017;-63
2022/07/24 03:16:55;;;;;;;0.00;0.00;;;;;;;;;;5038963;28;20036;-62
2022/07/24 03:19:20;;;;;;;0.03;0.03;;;;;;;;;;5037703;28;20032;-63
2022/07/24 03:21:49;;;;;;;0.00;0.00;;;;;;;;;;5038958;28;20529;-64
2022/07/24 03:24:14;;;;;;;0.00;0.00;;;;;;;;;;5037341;28;20025;-62
2022/07/24 03:26:39;;;;;;;0.10;0.08;;;;;;;;;;5039125;28;20020;-63
2022/07/24 03:29:04;;;;;;;0.00;0.00;;;;;;;;;;5039009;28;20060;-62
2022/07/24 03:31:30;;;;;;;0.00;0.00;;;;;;;;;;5040391;28;20068;-63
2022/07/24 03:33:55;;;;;;;0.30;0.20;;;;;;;;;;5038877;28;20033;-62
2022/07/24 03:36:20;;;;;;;0.80;0.08;;;;;;;;;;5039227;28;20021;-62
2022/07/24 03:38:45;;;;;;;0.32;0.32;;;;;;;;;;5038465;28;20033;-63
2022/07/24 03:41:10;;;;;;;0.00;0.00;;;;;;;;;;5037980;28;20083;-63
2022/07/24 03:43:36;;;;;;;0.00;0.00;;;;;;;;;;5037820;28;20094;-63
2022/07/24 03:46:01;;;;;;;0.35;0.35;;;;;;;;;;5038326;28;20418;-63
2022/07/24 03:48:26;;;;;;;0.00;0.00;;;;;;;;;;5036754;28;20449;-65
2022/07/24 03:50:51;;;;;;;0.00;0.00;;;;;;;;;;5038845;28;20020;-61
2022/07/24 03:53:17;;;;;;;0.10;0.10;;;;;;;;;;5038492;28;20027;-62
2022/07/24 03:55:42;;;;;;;0.00;0.00;;;;;;;;;;5038303;28;20493;-65
2022/07/24 03:58:07;;;;;;;0.00;0.00;;;;;;;;;;5040272;28;20486;-65
2022/07/24 04:00:35;;;;;;;0.00;0.00;;;;;;;;;;5038281;28;20021;-64
2022/07/24 04:03:06;;;;;;;0.10;0.10;;;;;;;;;;5038083;28;20054;-63
2022/07/24 04:05:31;;;;;;;0.00;0.00;;;;;;;;;;5038557;28;20030;-64
2022/07/24 04:07:56;;;;;;;2.17;2.00;;;;;;;;;;5038269;28;20025;-64
2022/07/24 04:10:21;;;;;;;0.55;0.55;;;;;;;;;;5038371;28;20025;-63
2022/07/24 04:12:47;;;;;;;0.00;0.00;;;;;;;;;;5038825;28;20653;-64
2022/07/24 04:15:12;;;;;;;0.65;0.32;;;;;;;;;;5036503;28;20078;-62
2022/07/24 04:17:45;;;;;;;0.00;0.00;;;;;;;;;;5038499;28;20029;-62
2022/07/24 04:20:13;;;;;;;0.00;0.00;;;;;;;;;;5037791;28;20037;-63
2022/07/24 04:22:38;;;;;;;0.00;0.00;;;;;;;;;;5038178;28;20477;-65
2022/07/24 04:25:03;;;;;;;0.10;0.10;;;;;;;;;;5038777;28;20028;-64
2022/07/24 04:27:31;;;;;;;0.00;0.00;;;;;;;;;;5039687;28;20472;-65
2022/07/24 04:29:57;;;;;;;1.20;1.20;;;;;;;;;;5038917;28;20055;-66
2022/07/24 04:32:23;;;;;;;0.20;0.20;;;;;;;;;;5038185;28;20021;-64
2022/07/24 04:34:48;;;;;;;0.17;0.17;;;;;;;;;;5038652;28;20025;-66
2022/07/24 04:37:13;;;;;;;0.30;0.30;;;;;;;;;;5037445;28;20033;-65
2022/07/24 04:39:41;;;;;;;0.00;0.00;;;;;;;;;;5038366;28;20036;-64
2022/07/24 04:42:06;;;;;;;0.00;0.00;;;;;;;;;;5038187;28;20029;-61
2022/07/24 04:44:35;;;;;;;0.85;0.85;;;;;;;;;;5037682;28;20051;-63
2022/07/24 04:47:00;;;;;;;0.13;0.13;;;;;;;;;;5038917;28;20034;-63
2022/07/24 04:49:25;;;;;;;8.02;1.08;;;;;;;;;;5037732;28;20583;-64
2022/07/24 04:51:50;;;;;;;0.43;0.22;;;;;;;;;;5037911;28;20016;-63
2022/07/24 04:54:16;;;;;;;0.00;0.00;;;;;;;;;;5037349;28;20477;-62
2022/07/24 04:56:41;;;;;;;0.00;0.00;;;;;;;;;;5038959;28;20076;-60
2022/07/24 04:59:09;;;;;;;0.13;0.13;;;;;;;;;;5042102;28;20033;-60
2022/07/24 05:01:43;;;;;;;0.00;0.00;;;;;;;;;;5040792;28;20025;-61
2022/07/24 05:04:08;;;;;;;0.00;0.00;;;;;;;;;;5041319;28;20132;-61
2022/07/24 05:06:36;;;;;;;0.00;0.00;;;;;;;;;;5040784;28;20147;-60
2022/07/24 05:09:02;;;;;;;0.00;0.00;;;;;;;;;;5041341;28;20084;-60
2022/07/24 05:11:27;;;;;;;0.00;0.00;;;;;;;;;;5041040;28;20021;-60
2022/07/24 05:13:52;;;;;;;0.00;0.00;;;;;;;;;;5042337;28;20500;-63
2022/07/24 05:16:20;;;;;;;0.15;0.15;;;;;;;;;;5040954;28;20029;-63
2022/07/24 05:18:46;;;;;;;0.00;0.00;;;;;;;;;;5041242;28;20030;-64
2022/07/24 05:21:11;;;;;;;0.30;0.30;;;;;;;;;;5041321;28;20319;-63
2022/07/24 05:23:36;;;;;;;0.00;0.00;;;;;;;;;;5040099;28;20117;-64
2022/07/24 05:26:01;;;;;;;0.00;0.00;;;;;;;;;;5042553;28;20478;-63
2022/07/24 05:28:27;;;;;;;0.00;0.00;;;;;;;;;;5040526;28;20020;-63
2022/07/24 05:30:54;;;;;;;0.00;0.00;;;;;;;;;;5041935;28;20017;-63
2022/07/24 05:33:37;;;;;;;0.00;0.00;;;;;;;;;;5040734;28;20032;-62
2022/07/24 05:36:03;;;;;;;0.00;0.00;;;;;;;;;;5041238;28;20436;-63
2022/07/24 05:38:34;;;;;;;0.00;0.00;;;;;;;;;;5040805;28;20071;-63
2022/07/24 05:41:02;;;;;;;0.00;0.00;;;;;;;;;;5041290;28;20021;-63
2022/07/24 05:43:30;;;;;;;0.00;0.00;;;;;;;;;;5040222;28;20025;-63
2022/07/24 05:45:58;;;;;;;0.00;0.00;;;;;;;;;;5040986;28;20473;-63
2022/07/24 05:48:26;;;;;;;0.00;0.00;;;;;;;;;;5040232;28;20036;-64
2022/07/24 05:50:53;;;;;;;0.00;0.00;;;;;;;;;;5040655;28;20057;-64
2022/07/24 05:53:18;;;;;;;0.00;0.00;;;;;;;;;;5042230;28;20069;-64
2022/07/24 05:55:46;;;;;;;0.00;0.00;;;;;;;;;;5042100;28;20503;-63
2022/07/24 05:58:12;;;;;;;0.00;0.00;;;;;;;;;;5041455;28;20264;-66
2022/07/24 06:00:37;;;;;;;0.75;0.75;;;;;;;;;;5039711;28;20048;-65
2022/07/24 06:03:02;;;;;;;0.00;0.00;;;;;;;;;;5040597;28;20048;-65
2022/07/24 06:05:27;;;;;;;0.00;0.00;;;;;;;;;;5040444;28;20275;-66
2022/07/24 06:07:53;;;;;;;0.00;0.00;;;;;;;;;;5040323;28;20029;-63
2022/07/24 06:10:18;;;;;;;0.45;0.45;;;;;;;;;;5040305;28;20029;-62
2022/07/24 06:12:43;;;;;;;0.00;0.00;;;;;;;;;;5040387;28;20075;-63
2022/07/24 06:15:08;;;;;;;0.00;0.00;;;;;;;;;;5040345;28;20068;-63
2022/07/24 06:17:37;;;;;;;0.00;0.00;;;;;;;;;;5039487;28;20030;-63
2022/07/24 06:20:05;;;;;;;0.00;0.00;;;;;;;;;;5041786;28;20509;-61
2022/07/24 06:22:33;;;;;;;0.00;0.00;;;;;;;;;;5040590;28;20056;-62
2022/07/24 06:24:58;;;;;;;0.00;0.00;;;;;;;;;;5038385;28;20432;-62
2022/07/24 06:27:23;;;;;;;0.00;0.00;;;;;;;;;;5037492;28;20021;-62
2022/07/24 06:29:49;;;;;;;0.00;0.00;;;;;;;;;;5039332;28;20105;-62
2022/07/24 06:32:26;;;;;;;0.47;0.47;;;;;;;;;;5038329;28;20271;-62
2022/07/24 06:34:51;;;;;;;0.00;0.00;;;;;;;;;;5039642;28;20025;-62
2022/07/24 06:37:17;;;;;;;0.00;0.00;;;;;;;;;;5039836;28;20101;-62
2022/07/24 06:39:42;;;;;;;0.10;0.10;;;;;;;;;;5040039;28;20053;-61
2022/07/24 06:42:07;;;;;;;0.00;0.00;;;;;;;;;;5039933;28;20028;-64
2022/07/24 06:44:33;;;;;;;0.10;0.00;;;;;;;;;;5039504;28;20283;-64
2022/07/24 06:47:00;;;;;;;0.00;0.00;;;;;;;;;;5039935;28;20279;-63
2022/07/24 06:49:27;;;;;;;0.00;0.00;;;;;;;;;;5039447;28;20036;-62
2022/07/24 06:51:53;;;;;;;0.15;0.15;;;;;;;;;;5040555;28;20029;-62
2022/07/24 06:54:21;;;;;;;0.63;0.30;;;;;;;;;;5039590;28;20025;-64
2022/07/24 06:56:49;;;;;;;1.13;0.83;;;;;;;;;;5037918;28;21406;-67
2022/07/24 06:59:20;;;;;;;0.00;0.00;;;;;;;;;;5039360;28;20409;-66
2022/07/24 07:01:47;;;;;;;0.00;0.00;;;;;;;;;;5039159;28;20056;-66
2022/07/24 07:04:13;;;;;;;0.00;0.00;;;;;;;;;;5039473;28;20057;-65
2022/07/24 07:06:38;;;;;;;0.43;0.43;;;;;;;;;;5039042;28;20051;-65
2022/07/24 07:09:03;;;;;;;0.00;0.00;;;;;;;;;;5038957;28;20025;-65
2022/07/24 07:11:28;;;;;;;0.30;0.30;;;;;;;;;;5038942;28;20504;-66
2022/07/24 07:13:54;;;;;;;0.10;0.10;;;;;;;;;;5038802;28;20275;-66
2022/07/24 07:16:19;;;;;;;0.52;0.52;;;;;;;;;;5038785;28;20267;-65
2022/07/24 07:18:44;;;;;;;0.00;0.00;;;;;;;;;;5037794;28;20017;-65
2022/07/24 07:21:12;;;;;;;0.00;0.00;;;;;;;;;;5041769;28;20274;-65
2022/07/24 07:23:37;;;;;;;0.43;0.43;;;;;;;;;;5036656;28;20022;-66
2022/07/24 07:26:05;;;;;;;0.10;0.10;;;;;;;;;;5038669;28;20507;-66
2022/07/24 07:28:36;;;;;;;0.00;0.00;;;;;;;;;;5036716;28;20275;-65
2022/07/24 07:31:01;;;;;;;0.00;0.00;;;;;;;;;;5038554;28;20041;-66
2022/07/24 07:33:27;;;;;;;0.00;0.00;;;;;;;;;;5042225;28;20027;-66
2022/07/24 07:35:55;;;;;;;0.00;0.00;;;;;;;;;;5039080;28;20045;-66
2022/07/24 07:38:23;;;;;;;0.00;0.00;;;;;;;;;;5037995;28;20256;-66
2022/07/24 07:40:48;;;;;;;0.00;0.00;;;;;;;;;;5039457;28;20037;-67
2022/07/24 07:43:13;;;;;;;0.00;0.00;;;;;;;;;;5037951;28;20093;-67
2022/07/24 07:45:38;;;;;;;0.00;0.00;;;;;;;;;;5037844;28;20110;-68
2022/07/24 07:48:04;;;;;;;0.00;0.00;;;;;;;;;;5038854;28;20108;-68
2022/07/24 07:50:29;;;;;;;0.00;0.00;;;;;;;;;;5039320;28;20302;-68
2022/07/24 07:52:57;;;;;;;0.43;0.43;;;;;;;;;;5037417;28;20022;-68
2022/07/24 07:55:22;;;;;;;0.00;0.00;;;;;;;;;;5035546;28;20104;-68
2022/07/24 07:57:48;;;;;;;0.00;0.00;;;;;;;;;;5037565;28;20100;-68
2022/07/24 08:00:14;;;;;;;0.00;0.00;;;;;;;;;;5035982;28;20272;-67
2022/07/24 08:02:39;;;;;;;0.00;0.00;;;;;;;;;;5036815;28;20045;-67
2022/07/24 08:05:05;;;;;;;0.00;0.00;;;;;;;;;;5041700;28;20037;-66
2022/07/24 08:07:30;;;;;;;0.00;0.00;;;;;;;;;;5037394;28;20025;-68
2022/07/24 08:09:56;;;;;;;0.00;0.00;;;;;;;;;;5037678;28;20024;-68
2022/07/24 08:12:21;;;;;;;0.00;0.00;;;;;;;;;;5036123;28;20267;-62
2022/07/24 08:14:49;;;;;;;0.00;0.00;;;;;;;;;;5038146;28;20024;-62
2022/07/24 08:17:14;;;;;;;0.00;0.00;;;;;;;;;;5039383;28;20044;-63
2022/07/24 08:19:40;;;;;;;0.00;0.00;;;;;;;;;;5038721;28;20025;-62
2022/07/24 08:22:05;;;;;;;0.00;0.00;;;;;;;;;;5037440;28;20028;-63
2022/07/24 08:24:33;;;;;;;0.00;0.00;;;;;;;;;;5036420;28;20083;-62
2022/07/24 08:27:01;;;;;;;0.00;0.00;;;;;;;;;;5038206;28;20518;-63
2022/07/24 08:29:26;;;;;;;;;;;;;;;;;;5037588;28;20025;-62
2022/07/24 08:31:52;;;;;;;0.00;0.00;;;;;;;;;;5042085;28;19923;-62
2022/07/24 08:34:17;;;;;;;0.00;0.00;;;;;;;;;;5042845;28;20021;-63
2022/07/24 08:36:45;;;;;;;0.40;0.30;;;;;;;;;;5041445;28;20115;-62
2022/07/24 08:39:14;;;;;;;0.00;0.00;;;;;;;;;;5042757;28;20037;-63
2022/07/24 08:41:40;;;;;;;0.00;0.00;;;;;;;;;;5041191;28;20025;-62
2022/07/24 08:44:05;;;;;;;0.00;0.00;;;;;;;;;;5042251;28;20335;-62
2022/07/24 08:46:31;;;;;;;0.00;0.00;;;;;;;;;;5043237;28;22000;-62
2022/07/24 08:48:57;;;;;;;0.00;0.00;;;;;;;;;;5042790;28;20367;-62
2022/07/24 08:51:22;;;;;;;0.00;0.00;;;;;;;;;;5039922;28;20032;-62
2022/07/24 08:53:49;;;;;;;0.00;0.00;;;;;;;;;;5041217;28;20025;-63
2022/07/24 08:56:15;;;;;;;0.00;0.00;;;;;;;;;;5041605;28;20028;-63
2022/07/24 08:58:43;;;;;;;0.00;0.00;;;;;;;;;;5041000;28;20017;-63
2022/07/24 09:01:09;;;;;;;0.00;0.00;;;;;;;;;;5043984;28;20034;-63
2022/07/24 09:03:44;;;;;;;0.00;0.00;;;;;;;;;;5041416;28;20052;-64
2022/07/24 09:06:13;;;;;;;0.00;0.00;;;;;;;;;;5041073;28;20027;-63
2022/07/24 09:09:02;;;;;;;0.00;0.00;;;;;;;;;;5040289;28;20127;-65
2022/07/24 09:11:30;;;;;;;0.00;0.00;;;;;;;;;;5031328;28;20049;-64
2022/07/24 09:16:43;;;;;;;0.00;0.00;;;;;;;;;;5043794;28;20091;-63
2022/07/24 09:19:09;;;;;;;0.00;0.00;;;;;;;;;;5041002;28;20025;-62
2022/07/24 09:21:35;;;;;;;0.22;0.22;;;;;;;;;;5039365;28;20021;-62
2022/07/24 09:24:10;;;;;;;0.00;0.00;;;;;;;;;;5040526;28;20467;-62
2022/07/24 09:26:42;;;;;;;0.00;0.00;;;;;;;;;;5014144;28;20021;-63
2022/07/24 09:29:13;;;;;;;0.20;0.20;;;;;;;;;;5040977;28;20470;-63
2022/07/24 09:31:53;;;;;;;0.00;0.00;;;;;;;;;;5042229;28;20433;-62
2022/07/24 09:34:18;;;;;;;0.00;0.00;;;;;;;;;;5032100;28;20106;-63
2022/07/24 09:36:56;;;;;;;6.75;4.68;;;;;;;;;;5039643;28;20064;-63
2022/07/24 09:39:22;;;;;;;0.25;0.25;;;;;;;;;;5040260;28;20017;-63
2022/07/24 09:41:54;;;;;;;0.10;0.10;;;;;;;;;;5039781;28;20044;-63
2022/07/24 09:44:23;;;;;;;0.00;0.00;;;;;;;;;;5039367;28;20017;-64
2022/07/24 09:46:54;;;;;;;0.00;0.00;;;;;;;;;;5041924;28;20024;-65
2022/07/24 09:49:20;;;;;;;0.00;0.00;;;;;;;;;;5039653;28;20036;-66
2022/07/24 09:52:03;;;;;;;0.00;0.00;;;;;;;;;;5039634;28;20048;-63
2022/07/24 09:54:36;;;;;;;0.00;0.00;;;;;;;;;;5039131;28;20044;-63
2022/07/24 09:57:20;;;;;;;0.65;0.65;;;;;;;;;;5040111;28;20033;-63
2022/07/24 09:59:49;;;;;;;0.85;0.85;;;;;;;;;;5039504;28;20140;-64
2022/07/24 10:02:20;;;;;;;0.03;0.03;;;;;;;;;;5039790;28;20049;-64
2022/07/24 10:04:46;;;;;;;0.00;0.00;;;;;;;;;;5041794;28;20359;-63
2022/07/24 10:07:12;;;;;;;0.00;0.00;;;;;;;;;;5039973;28;20026;-63
2022/07/24 10:09:42;;;;;;;0.00;0.00;;;;;;;;;;5039408;28;20020;-62
2022/07/24 10:12:28;;;;;;;0.05;0.05;;;;;;;;;;5041125;28;20473;-62
2022/07/24 10:14:54;;;;;;;0.00;0.00;;;;;;;;;;5041409;28;20021;-61
2022/07/24 10:17:22;;;;;;;0.00;0.00;;;;;;;;;;5039596;28;20025;-61
2022/07/24 10:19:49;;;;;;;0.00;0.00;;;;;;;;;;5037772;28;20731;-62
2022/07/24 10:22:15;;;;;;;0.00;0.00;;;;;;;;;;5036358;28;20037;-61
2022/07/24 10:24:43;;;;;;;0.00;0.00;;;;;;;;;;5040001;28;20516;-62
2022/07/24 10:27:14;;;;;;;0.00;0.00;;;;;;;;;;5038756;28;20064;-62
2022/07/24 10:29:40;;;;;;;0.00;0.00;;;;;;;;;;5038635;28;20025;-61
2022/07/24 10:32:05;;;;;;;0.00;0.00;;;;;;;;;;5037717;28;20045;-61
2022/07/24 10:35:06;;;;;;;0.00;0.00;;;;;;;;;;5038807;28;20049;-62
2022/07/24 10:37:37;;;;;;;0.00;0.00;;;;;;;;;;4974276;28;20026;-62
2022/07/24 10:40:14;;;;;;;0.00;0.00;;;;;;;;;;5024829;28;20140;-62
2022/07/24 10:42:58;;;;;;;0.00;0.00;;;;;;;;;;5038146;28;20031;-61
2022/07/24 10:45:28;;;;;;;0.00;0.00;;;;;;;;;;5038173;28;20021;-62
2022/07/24 10:47:54;;;;;;;0.00;0.00;;;;;;;;;;5037758;28;20159;-61
2022/07/24 10:50:19;;;;;;;0.55;0.55;;;;;;;;;;5038830;28;20012;-62
2022/07/24 10:52:47;;;;;;;0.20;0.20;;;;;;;;;;5036450;28;20028;-62
2022/07/24 10:55:34;;;;;;;0.00;0.00;;;;;;;;;;5038519;28;20362;-62
2022/07/24 10:58:04;;;;;;;0.90;0.55;;;;;;;;;;5039655;28;20505;-62
2022/07/24 11:00:31;;;;;;;0.60;0.60;;;;;;;;;;5039030;28;20448;-62
2022/07/24 11:03:02;;;;;;;0.03;0.03;;;;;;;;;;5039340;28;20063;-62
2022/07/24 11:05:31;;;;;;;0.00;0.00;;;;;;;;;;5038893;28;20686;-63
2022/07/24 11:07:56;;;;;;;;;;;;;;;;;;5039471;28;20067;-62
2022/07/24 11:10:41;;;;;;;0.00;0.00;;;;;;;;;;5037206;28;19944;-62
2022/07/24 11:13:26;;;;;;;0.00;0.00;;;;;;;;;;5041034;28;20039;-62
2022/07/24 11:16:10;;;;;;;0.00;0.00;;;;;;;;;;5038904;28;20024;-62
2022/07/24 11:18:36;;;;;;;0.00;0.00;;;;;;;;;;5038329;28;20021;-62
2022/07/24 11:21:01;;;;;;;0.08;0.08;;;;;;;;;;5038129;28;20104;-63
2022/07/24 11:23:26;;;;;;;0.00;0.00;;;;;;;;;;5038799;28;20103;-62
2022/07/24 11:26:11;;;;;;;0.40;0.40;;;;;;;;;;5038851;28;20037;-63
2022/07/24 11:28:37;;;;;;;0.00;0.00;;;;;;;;;;5038018;28;20119;-62
2022/07/24 11:31:03;;;;;;;0.00;0.00;;;;;;;;;;5038246;28;20144;-63
2022/07/24 11:33:29;;;;;;;0.65;0.65;;;;;;;;;;5038602;28;20059;-62
2022/07/24 11:35:57;;;;;;;0.22;0.22;;;;;;;;;;5039087;28;20017;-63
2022/07/24 11:38:31;;;;;;;0.43;0.43;;;;;;;;;;5040272;28;20033;-63
2022/07/24 11:41:06;;;;;;;0.10;0.10;;;;;;;;;;5037715;28;20029;-62
2022/07/24 11:43:33;;;;;;;0.00;0.00;;;;;;;;;;5038200;28;20390;-62
2022/07/24 11:45:58;;;;;;;0.55;0.55;;;;;;;;;;5038542;28;20060;-62
2022/07/24 11:48:23;;;;;;;0.00;0.00;;;;;;;;;;5036433;28;20029;-62
2022/07/24 11:50:49;;;;;;;0.00;0.00;;;;;;;;;;5038288;28;20021;-62
2022/07/24 11:53:14;;;;;;;0.00;0.00;;;;;;;;;;5025200;28;20044;-62
2022/07/24 11:55:42;;;;;;;0.00;0.00;;;;;;;;;;5039516;28;20284;-62
2022/07/24 11:58:07;;;;;;;0.00;0.00;;;;;;;;;;5034382;28;20381;-62
2022/07/24 12:00:32;;;;;;;0.67;0.67;;;;;;;;;;5035552;28;20111;-62
2022/07/24 12:02:58;;;;;;;0.00;0.00;;;;;;;;;;5035609;28;20374;-62
2022/07/24 12:05:29;;;;;;;0.55;0.55;;;;;;;;;;5037711;28;20052;-61
2022/07/24 12:07:56;;;;;;;0.00;0.00;;;;;;;;;;5037819;28;20548;-61
2022/07/24 12:10:22;;;;;;;0.00;0.00;;;;;;;;;;5039751;28;20740;-61
2022/07/24 12:12:51;;;;;;;0.10;0.10;;;;;;;;;;5035567;28;20037;-61
2022/07/24 12:15:17;;;;;;;0.00;0.00;;;;;;;;;;5036712;28;20120;-62
2022/07/24 12:18:01;;;;;;;0.00;0.00;;;;;;;;;;5037035;28;21127;-61
2022/07/24 12:20:33;;;;;;;0.20;0.20;;;;;;;;;;5037054;28;20025;-61
2022/07/24 12:23:00;;;;;;;0.08;0.08;;;;;;;;;;5038531;28;20467;-61
2022/07/24 12:25:26;;;;;;;0.43;0.43;;;;;;;;;;5037169;28;20026;-61
2022/07/24 12:28:01;;;;;;;0.00;0.00;;;;;;;;;;5027937;28;20051;-62
2022/07/24 12:30:29;;;;;;;0.00;0.00;;;;;;;;;;5037843;28;20021;-62
2022/07/24 12:33:18;;;;;;;0.00;0.00;;;;;;;;;;5036585;28;20128;-62
2022/07/24 12:35:55;;;;;;;0.43;0.43;;;;;;;;;;5023872;28;20375;-61
2022/07/24 12:38:24;;;;;;;2.72;0.75;;;;;;;;;;5037908;28;20025;-61
2022/07/24 12:40:49;;;;;;;;;;;;;;;;;;5039101;28;20033;-61
2022/07/24 12:43:14;;;;;;;0.60;0.17;;;;;;;;;;5038102;28;19916;-61
2022/07/24 12:45:39;;;;;;;0.00;0.00;;;;;;;;;;5036821;28;20466;-61
2022/07/24 12:48:05;;;;;;;1.08;0.35;;;;;;;;;;5036420;28;20287;-62
2022/07/24 12:50:31;;;;;;;0.38;0.28;;;;;;;;;;5037255;28;20053;-62
2022/07/24 12:53:03;;;;;;;0.00;0.00;;;;;;;;;;5036978;28;20057;-62
2022/07/24 12:55:28;;;;;;;0.65;0.65;;;;;;;;;;5037564;28;20028;-62
2022/07/24 12:57:59;;;;;;;0.00;0.00;;;;;;;;;;5038173;28;20095;-62
2022/07/24 13:00:25;;;;;;;0.00;0.00;;;;;;;;;;5037704;28;20259;-63
2022/07/24 13:02:50;;;;;;;0.20;0.20;;;;;;;;;;5034437;28;20053;-63
2022/07/24 13:05:35;;;;;;;0.00;0.00;;;;;;;;;;5027242;28;20034;-63
2022/07/24 13:08:00;;;;;;;0.00;0.00;;;;;;;;;;5027217;28;20375;-63
2022/07/24 13:10:25;;;;;;;0.00;0.00;;;;;;;;;;5022298;28;20104;-63
2022/07/24 13:12:50;;;;;;;0.17;0.17;;;;;;;;;;5018239;28;20351;-63
2022/07/24 13:15:16;;;;;;;0.00;0.00;;;;;;;;;;5018228;28;20268;-62
2022/07/24 13:17:41;;;;;;;0.00;0.00;;;;;;;;;;5020694;28;20268;-62
2022/07/24 13:20:07;;;;;;;0.13;0.13;;;;;;;;;;5021653;28;20594;-63
2022/07/24 13:22:32;;;;;;;0.35;0.35;;;;;;;;;;5019427;28;20120;-62
2022/07/24 13:24:57;;;;;;;2.70;1.03;;;;;;;;;;5021322;28;20030;-63
2022/07/24 13:27:22;;;;;;;0.00;0.00;;;;;;;;;;5021422;28;20288;-63
2022/07/24 13:29:47;;;;;;;0.00;0.00;;;;;;;;;;5020930;28;20113;-62
2022/07/24 13:32:13;;;;;;;0.03;0.03;;;;;;;;;;5019585;28;20025;-62
2022/07/24 13:34:38;;;;;;;0.00;0.00;;;;;;;;;;5025458;28;20273;-62
2022/07/24 13:37:05;;;;;;;0.85;0.85;;;;;;;;;;5029511;28;20033;-62
2022/07/24 13:39:30;;;;;;;0.10;0.10;;;;;;;;;;5030589;28;20021;-63
2022/07/24 13:41:55;;;;;;;0.63;0.63;;;;;;;;;;5031090;28;20032;-62
2022/07/24 13:44:20;;;;;;;0.00;0.00;;;;;;;;;;5031043;28;20099;-62
2022/07/24 13:46:46;;;;;;;0.00;0.00;;;;;;;;;;5030492;28;20316;-61
2022/07/24 13:49:14;;;;;;;0.20;0.20;;;;;;;;;;5030734;28;20041;-61
2022/07/24 13:51:39;;;;;;;0.10;0.10;;;;;;;;;;5021407;28;20467;-61
2022/07/24 13:54:05;;;;;;;0.00;0.00;;;;;;;;;;5020673;28;20029;-62
2022/07/24 13:56:30;;;;;;;0.52;0.52;;;;;;;;;;5020354;28;20018;-61
2022/07/24 13:58:58;;;;;;;0.60;0.60;;;;;;;;;;5029838;28;20060;-62
2022/07/24 14:01:23;;;;;;;1.85;1.15;;;;;;;;;;5031033;28;20083;-62
2022/07/24 14:03:52;;;;;;;0.00;0.00;;;;;;;;;;5037582;28;20409;-62
2022/07/24 14:06:17;;;;;;;0.15;0.15;;;;;;;;;;5041603;28;20355;-61
2022/07/24 14:08:45;;;;;;;0.22;0.22;;;;;;;;;;5038682;28;20112;-61
2022/07/24 14:11:10;;;;;;;0.52;0.52;;;;;;;;;;5038822;28;20100;-62
2022/07/24 14:13:36;;;;;;;0.00;0.00;;;;;;;;;;5039685;28;20025;-62
2022/07/24 14:16:01;;;;;;;0.00;0.00;;;;;;;;;;5022326;28;20311;-62
2022/07/24 14:18:29;;;;;;;4.45;4.15;;;;;;;;;;5039847;28;20441;-62
2022/07/24 14:20:54;;;;;;;0.00;0.00;;;;;;;;;;5031095;28;20394;-62
2022/07/24 14:23:20;;;;;;;0.00;0.00;;;;;;;;;;5042631;28;20116;-62
2022/07/24 14:25:45;;;;;;;0.00;0.00;;;;;;;;;;5038582;28;20029;-62
2022/07/24 14:28:11;;;;;;;0.00;0.00;;;;;;;;;;5041938;28;20283;-62
2022/07/24 14:30:36;;;;;;;0.00;0.00;;;;;;;;;;5039274;28;20397;-62
2022/07/24 14:33:01;;;;;;;0.00;0.00;;;;;;;;;;5043712;28;20024;-61
2022/07/24 14:35:27;;;;;;;0.70;0.70;;;;;;;;;;5039663;28;20035;-62
2022/07/24 14:37:52;;;;;;;0.00;0.00;;;;;;;;;;5038926;28;20063;-61
2022/07/24 14:40:17;;;;;;;0.00;0.00;;;;;;;;;;5039396;28;20033;-61
2022/07/24 14:42:42;;;;;;;0.00;0.00;;;;;;;;;;5038341;28;20112;-61
2022/07/24 14:45:08;;;;;;;0.00;0.00;;;;;;;;;;5039988;28;20021;-62
2022/07/24 14:47:33;;;;;;;0.00;0.00;;;;;;;;;;5039412;28;20279;-62